sensor_id;sensor_type;location;lat;lon;timestamp;P1;durP1;ratioP1;P2;durP2;ratioP2
76210;SDS011;65003;49.518;11.280;2023-04-06T00:00:57;5.10;;;3.50;;
76210;SDS011;65003;49.518;11.280;2023-04-06T00:03:23;4.90;;;3.60;;
76210;SDS011;65003;49.518;11.280;2023-04-06T00:05:51;5.40;;;3.67;;
76210;SDS011;65003;49.518;11.280;2023-04-06T00:08:18;4.90;;;3.60;;
76210;SDS011;65003;49.518;11.280;2023-04-06T00:10:46;6.27;;;3.67;;
76210;SDS011;65003;49.518;11.280;2023-04-06T00:13:12;6.57;;;3.90;;
76210;SDS011;65003;49.518;11.280;2023-04-06T00:15:39;4.90;;;3.67;;
76210;SDS011;65003;49.518;11.280;2023-04-06T00:18:06;5.47;;;3.40;;
76210;SDS011;65003;49.518;11.280;2023-04-06T00:20:32;6.83;;;3.63;;
76210;SDS011;65003;49.518;11.280;2023-04-06T00:22:59;4.83;;;3.43;;
76210;SDS011;65003;49.518;11.280;2023-04-06T00:25:25;4.97;;;3.80;;
76210;SDS011;65003;49.518;11.280;2023-04-06T00:27:52;9.87;;;3.83;;
76210;SDS011;65003;49.518;11.280;2023-04-06T00:30:19;6.87;;;3.80;;
76210;SDS011;65003;49.518;11.280;2023-04-06T00:32:45;4.33;;;3.33;;
76210;SDS011;65003;49.518;11.280;2023-04-06T00:35:12;6.30;;;4.30;;
76210;SDS011;65003;49.518;11.280;2023-04-06T00:37:39;5.17;;;3.47;;
76210;SDS011;65003;49.518;11.280;2023-04-06T00:40:06;6.20;;;3.73;;
76210;SDS011;65003;49.518;11.280;2023-04-06T00:42:34;5.03;;;4.53;;
76210;SDS011;65003;49.518;11.280;2023-04-06T00:45:00;4.13;;;3.73;;
76210;SDS011;65003;49.518;11.280;2023-04-06T00:47:28;4.40;;;3.40;;
76210;SDS011;65003;49.518;11.280;2023-04-06T00:49:55;6.57;;;3.40;;
76210;SDS011;65003;49.518;11.280;2023-04-06T00:52:21;6.90;;;3.67;;
76210;SDS011;65003;49.518;11.280;2023-04-06T00:54:48;5.20;;;3.80;;
76210;SDS011;65003;49.518;11.280;2023-04-06T00:57:15;7.80;;;3.70;;
76210;SDS011;65003;49.518;11.280;2023-04-06T00:59:43;4.80;;;3.77;;
76210;SDS011;65003;49.518;11.280;2023-04-06T01:02:09;5.03;;;3.60;;
76210;SDS011;65003;49.518;11.280;2023-04-06T01:04:36;8.03;;;3.50;;
76210;SDS011;65003;49.518;11.280;2023-04-06T01:07:03;6.57;;;3.83;;
76210;SDS011;65003;49.518;11.280;2023-04-06T01:09:29;4.97;;;3.60;;
76210;SDS011;65003;49.518;11.280;2023-04-06T01:11:56;5.80;;;4.40;;
76210;SDS011;65003;49.518;11.280;2023-04-06T01:14:23;5.97;;;4.10;;
76210;SDS011;65003;49.518;11.280;2023-04-06T01:16:49;5.23;;;3.63;;
76210;SDS011;65003;49.518;11.280;2023-04-06T01:19:16;6.80;;;3.60;;
76210;SDS011;65003;49.518;11.280;2023-04-06T01:21:43;5.20;;;3.90;;
76210;SDS011;65003;49.518;11.280;2023-04-06T01:24:10;6.97;;;3.77;;
76210;SDS011;65003;49.518;11.280;2023-04-06T01:26:36;6.33;;;4.13;;
76210;SDS011;65003;49.518;11.280;2023-04-06T01:29:03;4.97;;;4.03;;
76210;SDS011;65003;49.518;11.280;2023-04-06T01:31:30;4.87;;;3.50;;
76210;SDS011;65003;49.518;11.280;2023-04-06T01:33:56;5.67;;;3.53;;
76210;SDS011;65003;49.518;11.280;2023-04-06T01:36:23;8.30;;;3.53;;
76210;SDS011;65003;49.518;11.280;2023-04-06T01:38:49;6.70;;;3.73;;
76210;SDS011;65003;49.518;11.280;2023-04-06T01:41:17;7.20;;;4.23;;
76210;SDS011;65003;49.518;11.280;2023-04-06T01:43:45;4.37;;;3.43;;
76210;SDS011;65003;49.518;11.280;2023-04-06T01:46:11;5.10;;;3.60;;
76210;SDS011;65003;49.518;11.280;2023-04-06T01:48:38;4.63;;;3.67;;
76210;SDS011;65003;49.518;11.280;2023-04-06T01:51:05;4.47;;;3.70;;
76210;SDS011;65003;49.518;11.280;2023-04-06T01:53:32;5.73;;;4.10;;
76210;SDS011;65003;49.518;11.280;2023-04-06T01:56:00;6.17;;;3.70;;
76210;SDS011;65003;49.518;11.280;2023-04-06T01:58:27;6.90;;;3.90;;
76210;SDS011;65003;49.518;11.280;2023-04-06T02:00:53;4.47;;;3.47;;
76210;SDS011;65003;49.518;11.280;2023-04-06T02:03:20;6.33;;;4.27;;
76210;SDS011;65003;49.518;11.280;2023-04-06T02:05:46;3.50;;;3.20;;
76210;SDS011;65003;49.518;11.280;2023-04-06T02:08:13;7.47;;;4.30;;
76210;SDS011;65003;49.518;11.280;2023-04-06T02:10:40;5.13;;;3.80;;
76210;SDS011;65003;49.518;11.280;2023-04-06T02:13:07;4.83;;;3.73;;
76210;SDS011;65003;49.518;11.280;2023-04-06T02:15:33;6.23;;;3.50;;
76210;SDS011;65003;49.518;11.280;2023-04-06T02:18:00;4.73;;;3.40;;
76210;SDS011;65003;49.518;11.280;2023-04-06T02:20:27;6.30;;;4.60;;
76210;SDS011;65003;49.518;11.280;2023-04-06T02:22:56;6.63;;;3.97;;
76210;SDS011;65003;49.518;11.280;2023-04-06T02:25:21;5.57;;;3.30;;
76210;SDS011;65003;49.518;11.280;2023-04-06T02:27:47;5.50;;;3.27;;
76210;SDS011;65003;49.518;11.280;2023-04-06T02:30:14;6.13;;;3.40;;
76210;SDS011;65003;49.518;11.280;2023-04-06T02:32:41;3.50;;;2.97;;
76210;SDS011;65003;49.518;11.280;2023-04-06T02:35:07;5.10;;;3.57;;
76210;SDS011;65003;49.518;11.280;2023-04-06T02:37:34;10.07;;;3.57;;
76210;SDS011;65003;49.518;11.280;2023-04-06T02:40:01;4.47;;;3.00;;
76210;SDS011;65003;49.518;11.280;2023-04-06T02:42:27;6.77;;;3.47;;
76210;SDS011;65003;49.518;11.280;2023-04-06T02:44:54;4.30;;;3.00;;
76210;SDS011;65003;49.518;11.280;2023-04-06T02:47:20;4.63;;;3.33;;
76210;SDS011;65003;49.518;11.280;2023-04-06T02:49:47;3.80;;;2.80;;
76210;SDS011;65003;49.518;11.280;2023-04-06T02:52:14;4.23;;;3.17;;
76210;SDS011;65003;49.518;11.280;2023-04-06T02:54:40;7.47;;;3.53;;
76210;SDS011;65003;49.518;11.280;2023-04-06T02:57:07;3.83;;;3.03;;
76210;SDS011;65003;49.518;11.280;2023-04-06T02:59:34;4.07;;;3.10;;
76210;SDS011;65003;49.518;11.280;2023-04-06T03:02:00;4.10;;;3.60;;
76210;SDS011;65003;49.518;11.280;2023-04-06T03:04:27;5.30;;;3.70;;
76210;SDS011;65003;49.518;11.280;2023-04-06T03:06:54;5.00;;;3.37;;
76210;SDS011;65003;49.518;11.280;2023-04-06T03:09:20;6.20;;;3.93;;
76210;SDS011;65003;49.518;11.280;2023-04-06T03:11:47;5.33;;;3.70;;
76210;SDS011;65003;49.518;11.280;2023-04-06T03:14:14;6.40;;;3.50;;
76210;SDS011;65003;49.518;11.280;2023-04-06T03:16:40;5.70;;;3.60;;
76210;SDS011;65003;49.518;11.280;2023-04-06T03:19:07;4.83;;;3.00;;
76210;SDS011;65003;49.518;11.280;2023-04-06T03:21:33;7.83;;;3.97;;
76210;SDS011;65003;49.518;11.280;2023-04-06T03:24:00;6.70;;;3.83;;
76210;SDS011;65003;49.518;11.280;2023-04-06T03:26:27;5.20;;;4.03;;
76210;SDS011;65003;49.518;11.280;2023-04-06T03:28:54;3.95;;;3.52;;
76210;SDS011;65003;49.518;11.280;2023-04-06T03:31:21;4.90;;;3.37;;
76210;SDS011;65003;49.518;11.280;2023-04-06T03:33:47;6.20;;;3.90;;
76210;SDS011;65003;49.518;11.280;2023-04-06T03:36:14;5.90;;;4.13;;
76210;SDS011;65003;49.518;11.280;2023-04-06T03:38:40;5.47;;;4.27;;
76210;SDS011;65003;49.518;11.280;2023-04-06T03:41:07;4.77;;;3.70;;
76210;SDS011;65003;49.518;11.280;2023-04-06T03:43:34;6.70;;;3.70;;
76210;SDS011;65003;49.518;11.280;2023-04-06T03:46:00;5.50;;;3.50;;
76210;SDS011;65003;49.518;11.280;2023-04-06T03:48:28;5.70;;;3.70;;
76210;SDS011;65003;49.518;11.280;2023-04-06T03:50:54;6.70;;;4.40;;
76210;SDS011;65003;49.518;11.280;2023-04-06T03:53:21;6.03;;;4.03;;
76210;SDS011;65003;49.518;11.280;2023-04-06T03:55:48;5.37;;;3.57;;
76210;SDS011;65003;49.518;11.280;2023-04-06T03:58:15;7.07;;;3.80;;
76210;SDS011;65003;49.518;11.280;2023-04-06T04:00:41;5.60;;;3.72;;
76210;SDS011;65003;49.518;11.280;2023-04-06T04:03:08;6.37;;;4.10;;
76210;SDS011;65003;49.518;11.280;2023-04-06T04:05:35;5.17;;;4.07;;
76210;SDS011;65003;49.518;11.280;2023-04-06T04:08:02;6.90;;;3.77;;
76210;SDS011;65003;49.518;11.280;2023-04-06T04:10:28;10.13;;;5.10;;
76210;SDS011;65003;49.518;11.280;2023-04-06T04:12:55;7.03;;;4.00;;
76210;SDS011;65003;49.518;11.280;2023-04-06T04:15:21;4.20;;;3.63;;
76210;SDS011;65003;49.518;11.280;2023-04-06T04:17:48;6.90;;;4.23;;
76210;SDS011;65003;49.518;11.280;2023-04-06T04:20:15;4.67;;;4.17;;
76210;SDS011;65003;49.518;11.280;2023-04-06T04:22:42;5.37;;;3.50;;
76210;SDS011;65003;49.518;11.280;2023-04-06T04:25:09;6.17;;;3.80;;
76210;SDS011;65003;49.518;11.280;2023-04-06T04:27:35;4.13;;;3.43;;
76210;SDS011;65003;49.518;11.280;2023-04-06T04:30:02;6.73;;;3.63;;
76210;SDS011;65003;49.518;11.280;2023-04-06T04:32:29;5.67;;;3.77;;
76210;SDS011;65003;49.518;11.280;2023-04-06T04:34:55;5.37;;;4.20;;
76210;SDS011;65003;49.518;11.280;2023-04-06T04:37:22;5.70;;;4.43;;
76210;SDS011;65003;49.518;11.280;2023-04-06T04:39:48;5.47;;;3.73;;
76210;SDS011;65003;49.518;11.280;2023-04-06T04:42:15;6.10;;;4.13;;
76210;SDS011;65003;49.518;11.280;2023-04-06T04:44:42;5.27;;;4.60;;
76210;SDS011;65003;49.518;11.280;2023-04-06T04:47:08;7.77;;;4.30;;
76210;SDS011;65003;49.518;11.280;2023-04-06T04:49:38;6.40;;;4.20;;
76210;SDS011;65003;49.518;11.280;2023-04-06T04:52:04;8.13;;;4.10;;
76210;SDS011;65003;49.518;11.280;2023-04-06T04:54:31;6.13;;;3.77;;
76210;SDS011;65003;49.518;11.280;2023-04-06T04:56:57;4.83;;;3.90;;
76210;SDS011;65003;49.518;11.280;2023-04-06T04:59:24;6.83;;;4.07;;
76210;SDS011;65003;49.518;11.280;2023-04-06T05:01:51;5.97;;;4.10;;
76210;SDS011;65003;49.518;11.280;2023-04-06T05:04:18;7.60;;;4.33;;
76210;SDS011;65003;49.518;11.280;2023-04-06T05:06:45;4.97;;;3.73;;
76210;SDS011;65003;49.518;11.280;2023-04-06T05:09:11;5.07;;;3.70;;
76210;SDS011;65003;49.518;11.280;2023-04-06T05:11:38;5.93;;;4.33;;
76210;SDS011;65003;49.518;11.280;2023-04-06T05:14:05;6.43;;;4.17;;
76210;SDS011;65003;49.518;11.280;2023-04-06T05:16:34;6.33;;;4.97;;
76210;SDS011;65003;49.518;11.280;2023-04-06T05:18:58;6.40;;;4.10;;
76210;SDS011;65003;49.518;11.280;2023-04-06T05:21:25;6.20;;;4.10;;
76210;SDS011;65003;49.518;11.280;2023-04-06T05:23:51;7.40;;;4.10;;
76210;SDS011;65003;49.518;11.280;2023-04-06T05:26:18;7.80;;;4.13;;
76210;SDS011;65003;49.518;11.280;2023-04-06T05:28:45;7.63;;;4.40;;
76210;SDS011;65003;49.518;11.280;2023-04-06T05:31:11;8.77;;;4.57;;
76210;SDS011;65003;49.518;11.280;2023-04-06T05:33:38;5.27;;;3.57;;
76210;SDS011;65003;49.518;11.280;2023-04-06T05:36:04;6.73;;;4.23;;
76210;SDS011;65003;49.518;11.280;2023-04-06T05:38:31;5.63;;;4.27;;
76210;SDS011;65003;49.518;11.280;2023-04-06T05:40:58;5.67;;;3.87;;
76210;SDS011;65003;49.518;11.280;2023-04-06T05:43:24;5.83;;;3.93;;
76210;SDS011;65003;49.518;11.280;2023-04-06T05:45:51;9.90;;;4.30;;
76210;SDS011;65003;49.518;11.280;2023-04-06T05:48:18;5.73;;;4.10;;
76210;SDS011;65003;49.518;11.280;2023-04-06T05:50:48;5.57;;;4.13;;
76210;SDS011;65003;49.518;11.280;2023-04-06T05:53:14;5.47;;;3.90;;
76210;SDS011;65003;49.518;11.280;2023-04-06T05:55:40;6.27;;;3.80;;
76210;SDS011;65003;49.518;11.280;2023-04-06T05:58:07;7.57;;;3.30;;
76210;SDS011;65003;49.518;11.280;2023-04-06T06:00:34;6.47;;;4.20;;
76210;SDS011;65003;49.518;11.280;2023-04-06T06:03:00;6.97;;;4.50;;
76210;SDS011;65003;49.518;11.280;2023-04-06T06:05:28;5.47;;;3.50;;
76210;SDS011;65003;49.518;11.280;2023-04-06T06:07:54;8.18;;;3.90;;
76210;SDS011;65003;49.518;11.280;2023-04-06T06:10:21;7.17;;;3.70;;
76210;SDS011;65003;49.518;11.280;2023-04-06T06:12:47;8.97;;;3.73;;
76210;SDS011;65003;49.518;11.280;2023-04-06T06:15:14;5.83;;;3.67;;
76210;SDS011;65003;49.518;11.280;2023-04-06T06:17:41;5.93;;;3.70;;
76210;SDS011;65003;49.518;11.280;2023-04-06T06:20:08;9.17;;;4.10;;
76210;SDS011;65003;49.518;11.280;2023-04-06T06:22:35;6.13;;;3.63;;
76210;SDS011;65003;49.518;11.280;2023-04-06T06:25:02;6.13;;;4.30;;
76210;SDS011;65003;49.518;11.280;2023-04-06T06:27:28;10.70;;;4.83;;
76210;SDS011;65003;49.518;11.280;2023-04-06T06:29:55;7.47;;;5.03;;
76210;SDS011;65003;49.518;11.280;2023-04-06T06:32:23;6.30;;;4.20;;
76210;SDS011;65003;49.518;11.280;2023-04-06T06:34:49;6.93;;;4.40;;
76210;SDS011;65003;49.518;11.280;2023-04-06T06:37:15;7.27;;;4.77;;
76210;SDS011;65003;49.518;11.280;2023-04-06T06:39:42;7.40;;;4.87;;
76210;SDS011;65003;49.518;11.280;2023-04-06T06:42:09;7.37;;;4.47;;
76210;SDS011;65003;49.518;11.280;2023-04-06T06:44:35;8.67;;;4.30;;
76210;SDS011;65003;49.518;11.280;2023-04-06T06:47:02;6.60;;;4.53;;
76210;SDS011;65003;49.518;11.280;2023-04-06T06:49:28;6.23;;;4.07;;
76210;SDS011;65003;49.518;11.280;2023-04-06T06:51:55;10.50;;;3.87;;
76210;SDS011;65003;49.518;11.280;2023-04-06T06:54:22;5.80;;;3.67;;
76210;SDS011;65003;49.518;11.280;2023-04-06T06:56:48;6.77;;;4.03;;
76210;SDS011;65003;49.518;11.280;2023-04-06T06:59:15;5.97;;;3.90;;
76210;SDS011;65003;49.518;11.280;2023-04-06T07:01:41;5.23;;;4.50;;
76210;SDS011;65003;49.518;11.280;2023-04-06T07:04:08;6.53;;;4.00;;
76210;SDS011;65003;49.518;11.280;2023-04-06T07:06:35;7.60;;;3.80;;
76210;SDS011;65003;49.518;11.280;2023-04-06T07:09:02;4.83;;;3.47;;
76210;SDS011;65003;49.518;11.280;2023-04-06T07:11:29;5.47;;;4.17;;
76210;SDS011;65003;49.518;11.280;2023-04-06T07:13:55;6.67;;;4.23;;
76210;SDS011;65003;49.518;11.280;2023-04-06T07:16:21;5.03;;;4.00;;
76210;SDS011;65003;49.518;11.280;2023-04-06T07:18:48;3.93;;;3.53;;
76210;SDS011;65003;49.518;11.280;2023-04-06T07:21:15;5.53;;;4.40;;
76210;SDS011;65003;49.518;11.280;2023-04-06T07:23:41;7.27;;;4.20;;
76210;SDS011;65003;49.518;11.280;2023-04-06T07:26:08;6.70;;;4.13;;
76210;SDS011;65003;49.518;11.280;2023-04-06T07:28:35;6.27;;;4.57;;
76210;SDS011;65003;49.518;11.280;2023-04-06T07:31:01;5.97;;;4.37;;
76210;SDS011;65003;49.518;11.280;2023-04-06T07:33:28;6.50;;;4.43;;
76210;SDS011;65003;49.518;11.280;2023-04-06T07:35:55;5.87;;;4.17;;
76210;SDS011;65003;49.518;11.280;2023-04-06T07:38:21;5.97;;;4.53;;
76210;SDS011;65003;49.518;11.280;2023-04-06T07:40:48;6.50;;;4.63;;
76210;SDS011;65003;49.518;11.280;2023-04-06T07:43:14;6.97;;;5.20;;
76210;SDS011;65003;49.518;11.280;2023-04-06T07:45:41;5.57;;;4.77;;
76210;SDS011;65003;49.518;11.280;2023-04-06T07:48:07;6.23;;;4.97;;
76210;SDS011;65003;49.518;11.280;2023-04-06T07:50:34;7.73;;;5.20;;
76210;SDS011;65003;49.518;11.280;2023-04-06T07:53:01;6.30;;;4.80;;
76210;SDS011;65003;49.518;11.280;2023-04-06T07:55:27;5.97;;;5.10;;
76210;SDS011;65003;49.518;11.280;2023-04-06T07:57:54;5.70;;;5.03;;
76210;SDS011;65003;49.518;11.280;2023-04-06T08:00:21;6.60;;;5.17;;
76210;SDS011;65003;49.518;11.280;2023-04-06T08:02:47;6.97;;;5.20;;
76210;SDS011;65003;49.518;11.280;2023-04-06T08:05:14;6.03;;;5.33;;
76210;SDS011;65003;49.518;11.280;2023-04-06T08:07:41;5.20;;;4.60;;
76210;SDS011;65003;49.518;11.280;2023-04-06T08:10:07;6.23;;;4.77;;
76210;SDS011;65003;49.518;11.280;2023-04-06T08:12:34;6.23;;;4.87;;
76210;SDS011;65003;49.518;11.280;2023-04-06T08:15:01;7.50;;;4.93;;
76210;SDS011;65003;49.518;11.280;2023-04-06T08:17:28;5.27;;;4.77;;
76210;SDS011;65003;49.518;11.280;2023-04-06T08:19:54;6.13;;;5.00;;
76210;SDS011;65003;49.518;11.280;2023-04-06T08:22:21;6.20;;;5.67;;
76210;SDS011;65003;49.518;11.280;2023-04-06T08:24:47;6.70;;;5.40;;
76210;SDS011;65003;49.518;11.280;2023-04-06T08:27:14;6.47;;;5.37;;
76210;SDS011;65003;49.518;11.280;2023-04-06T08:29:41;6.63;;;5.13;;
76210;SDS011;65003;49.518;11.280;2023-04-06T08:32:07;6.60;;;5.50;;
76210;SDS011;65003;49.518;11.280;2023-04-06T08:34:34;5.33;;;4.83;;
76210;SDS011;65003;49.518;11.280;2023-04-06T08:37:00;6.10;;;5.50;;
76210;SDS011;65003;49.518;11.280;2023-04-06T08:39:27;6.70;;;6.10;;
76210;SDS011;65003;49.518;11.280;2023-04-06T08:41:54;7.70;;;5.93;;
76210;SDS011;65003;49.518;11.280;2023-04-06T08:44:22;5.70;;;5.17;;
76210;SDS011;65003;49.518;11.280;2023-04-06T08:46:49;6.03;;;5.43;;
76210;SDS011;65003;49.518;11.280;2023-04-06T08:49:15;6.10;;;5.50;;
76210;SDS011;65003;49.518;11.280;2023-04-06T08:51:42;7.57;;;5.53;;
76210;SDS011;65003;49.518;11.280;2023-04-06T08:54:09;6.85;;;5.62;;
76210;SDS011;65003;49.518;11.280;2023-04-06T08:56:37;6.30;;;5.50;;
76210;SDS011;65003;49.518;11.280;2023-04-06T08:59:02;6.60;;;5.47;;
76210;SDS011;65003;49.518;11.280;2023-04-06T09:01:29;5.73;;;5.23;;
76210;SDS011;65003;49.518;11.280;2023-04-06T09:03:56;6.17;;;5.27;;
76210;SDS011;65003;49.518;11.280;2023-04-06T09:06:22;6.87;;;6.28;;
76210;SDS011;65003;49.518;11.280;2023-04-06T09:08:48;6.80;;;6.10;;
76210;SDS011;65003;49.518;11.280;2023-04-06T09:11:15;5.90;;;5.40;;
76210;SDS011;65003;49.518;11.280;2023-04-06T09:13:44;6.97;;;6.37;;
76210;SDS011;65003;49.518;11.280;2023-04-06T09:16:13;7.40;;;5.80;;
76210;SDS011;65003;49.518;11.280;2023-04-06T09:18:40;6.20;;;5.60;;
76210;SDS011;65003;49.518;11.280;2023-04-06T09:21:07;6.72;;;6.08;;
76210;SDS011;65003;49.518;11.280;2023-04-06T09:23:33;7.00;;;5.42;;
76210;SDS011;65003;49.518;11.280;2023-04-06T09:26:06;5.58;;;5.08;;
76210;SDS011;65003;49.518;11.280;2023-04-06T09:28:49;6.10;;;5.57;;
76210;SDS011;65003;49.518;11.280;2023-04-06T09:31:21;6.40;;;5.83;;
76210;SDS011;65003;49.518;11.280;2023-04-06T09:33:51;5.50;;;5.00;;
76210;SDS011;65003;49.518;11.280;2023-04-06T09:36:17;5.87;;;5.28;;
76210;SDS011;65003;49.518;11.280;2023-04-06T09:41:22;5.97;;;5.50;;
76210;SDS011;65003;49.518;11.280;2023-04-06T09:43:49;5.85;;;5.45;;
76210;SDS011;65003;49.518;11.280;2023-04-06T09:46:15;6.00;;;5.33;;
76210;SDS011;65003;49.518;11.280;2023-04-06T09:48:42;6.67;;;6.12;;
76210;SDS011;65003;49.518;11.280;2023-04-06T09:51:08;6.30;;;5.50;;
76210;SDS011;65003;49.518;11.280;2023-04-06T09:53:35;5.27;;;4.77;;
76210;SDS011;65003;49.518;11.280;2023-04-06T09:56:03;6.03;;;4.33;;
76210;SDS011;65003;49.518;11.280;2023-04-06T09:58:31;5.97;;;4.87;;
76210;SDS011;65003;49.518;11.280;2023-04-06T10:01:00;4.87;;;4.10;;
76210;SDS011;65003;49.518;11.280;2023-04-06T10:03:28;4.93;;;4.43;;
76210;SDS011;65003;49.518;11.280;2023-04-06T10:05:55;4.47;;;4.07;;
76210;SDS011;65003;49.518;11.280;2023-04-06T10:08:21;4.70;;;4.10;;
76210;SDS011;65003;49.518;11.280;2023-04-06T10:10:48;5.87;;;5.27;;
76210;SDS011;65003;49.518;11.280;2023-04-06T10:13:14;5.45;;;4.95;;
76210;SDS011;65003;49.518;11.280;2023-04-06T10:15:41;5.30;;;4.90;;
76210;SDS011;65003;49.518;11.280;2023-04-06T10:18:08;5.72;;;5.30;;
76210;SDS011;65003;49.518;11.280;2023-04-06T10:20:43;6.17;;;5.58;;
76210;SDS011;65003;49.518;11.280;2023-04-06T10:23:15;7.50;;;4.93;;
76210;SDS011;65003;49.518;11.280;2023-04-06T10:25:51;6.67;;;4.67;;
76210;SDS011;65003;49.518;11.280;2023-04-06T10:28:08;4.83;;;4.40;;
76210;SDS011;65003;49.518;11.280;2023-04-06T10:30:35;5.63;;;4.30;;
76210;SDS011;65003;49.518;11.280;2023-04-06T10:33:12;4.27;;;3.87;;
76210;SDS011;65003;49.518;11.280;2023-04-06T10:38:03;4.87;;;4.40;;
76210;SDS011;65003;49.518;11.280;2023-04-06T10:40:30;4.40;;;4.00;;
76210;SDS011;65003;49.518;11.280;2023-04-06T10:43:06;4.78;;;4.37;;
76210;SDS011;65003;49.518;11.280;2023-04-06T10:45:30;4.72;;;4.42;;
76210;SDS011;65003;49.518;11.280;2023-04-06T10:47:57;5.25;;;4.58;;
76210;SDS011;65003;49.518;11.280;2023-04-06T10:50:23;6.67;;;4.80;;
76210;SDS011;65003;49.518;11.280;2023-04-06T10:55:26;5.30;;;4.90;;
76210;SDS011;65003;49.518;11.280;2023-04-06T10:57:52;7.13;;;4.73;;
76210;SDS011;65003;49.518;11.280;2023-04-06T11:00:19;4.87;;;4.47;;
76210;SDS011;65003;49.518;11.280;2023-04-06T11:02:46;5.03;;;4.53;;
76210;SDS011;65003;49.518;11.280;2023-04-06T11:05:12;5.07;;;4.53;;
76210;SDS011;65003;49.518;11.280;2023-04-06T11:07:40;5.27;;;4.77;;
76210;SDS011;65003;49.518;11.280;2023-04-06T11:10:08;4.80;;;4.30;;
76210;SDS011;65003;49.518;11.280;2023-04-06T11:12:35;10.77;;;4.67;;
76210;SDS011;65003;49.518;11.280;2023-04-06T11:15:02;6.30;;;4.67;;
76210;SDS011;65003;49.518;11.280;2023-04-06T11:17:30;4.60;;;4.10;;
76210;SDS011;65003;49.518;11.280;2023-04-06T11:19:57;4.37;;;4.03;;
76210;SDS011;65003;49.518;11.280;2023-04-06T11:22:24;5.17;;;3.90;;
76210;SDS011;65003;49.518;11.280;2023-04-06T11:24:51;4.73;;;4.23;;
76210;SDS011;65003;49.518;11.280;2023-04-06T11:27:17;5.70;;;4.43;;
76210;SDS011;65003;49.518;11.280;2023-04-06T11:29:44;5.23;;;4.83;;
76210;SDS011;65003;49.518;11.280;2023-04-06T11:32:20;5.47;;;4.90;;
76210;SDS011;65003;49.518;11.280;2023-04-06T11:34:47;6.70;;;5.10;;
76210;SDS011;65003;49.518;11.280;2023-04-06T11:37:13;5.20;;;4.70;;
76210;SDS011;65003;49.518;11.280;2023-04-06T11:39:55;4.70;;;4.23;;
76210;SDS011;65003;49.518;11.280;2023-04-06T11:42:24;8.50;;;4.27;;
76210;SDS011;65003;49.518;11.280;2023-04-06T11:44:56;29.17;;;20.43;;
76210;SDS011;65003;49.518;11.280;2023-04-06T11:47:29;36.67;;;26.73;;
76210;SDS011;65003;49.518;11.280;2023-04-06T11:49:55;17.07;;;14.67;;
76210;SDS011;65003;49.518;11.280;2023-04-06T11:52:23;8.23;;;7.42;;
76210;SDS011;65003;49.518;11.280;2023-04-06T11:54:50;5.33;;;4.83;;
76210;SDS011;65003;49.518;11.280;2023-04-06T11:57:16;14.80;;;11.43;;
76210;SDS011;65003;49.518;11.280;2023-04-06T11:59:43;10.60;;;5.60;;
76210;SDS011;65003;49.518;11.280;2023-04-06T12:02:09;7.67;;;5.07;;
76210;SDS011;65003;49.518;11.280;2023-04-06T12:04:36;6.80;;;5.60;;
76210;SDS011;65003;49.518;11.280;2023-04-06T12:07:03;6.10;;;4.77;;
76210;SDS011;65003;49.518;11.280;2023-04-06T12:09:29;5.00;;;4.50;;
76210;SDS011;65003;49.518;11.280;2023-04-06T12:11:56;4.93;;;4.43;;
76210;SDS011;65003;49.518;11.280;2023-04-06T12:14:22;6.63;;;4.73;;
76210;SDS011;65003;49.518;11.280;2023-04-06T12:16:49;5.30;;;4.50;;
76210;SDS011;65003;49.518;11.280;2023-04-06T12:19:15;5.33;;;4.37;;
76210;SDS011;65003;49.518;11.280;2023-04-06T12:21:42;5.87;;;4.27;;
76210;SDS011;65003;49.518;11.280;2023-04-06T12:24:09;4.67;;;3.70;;
76210;SDS011;65003;49.518;11.280;2023-04-06T12:26:35;4.60;;;3.53;;
76210;SDS011;65003;49.518;11.280;2023-04-06T12:29:02;3.83;;;3.50;;
76210;SDS011;65003;49.518;11.280;2023-04-06T12:31:35;4.07;;;3.67;;
76210;SDS011;65003;49.518;11.280;2023-04-06T12:34:02;4.00;;;3.40;;
76210;SDS011;65003;49.518;11.280;2023-04-06T12:36:28;7.03;;;4.30;;
76210;SDS011;65003;49.518;11.280;2023-04-06T12:38:55;6.50;;;4.07;;
76210;SDS011;65003;49.518;11.280;2023-04-06T12:41:22;4.47;;;4.07;;
76210;SDS011;65003;49.518;11.280;2023-04-06T12:43:48;6.57;;;4.20;;
76210;SDS011;65003;49.518;11.280;2023-04-06T12:46:16;5.93;;;4.43;;
76210;SDS011;65003;49.518;11.280;2023-04-06T12:48:42;4.90;;;4.20;;
76210;SDS011;65003;49.518;11.280;2023-04-06T12:51:09;5.67;;;4.40;;
76210;SDS011;65003;49.518;11.280;2023-04-06T12:53:37;4.90;;;4.40;;
76210;SDS011;65003;49.518;11.280;2023-04-06T12:56:10;4.37;;;3.97;;
76210;SDS011;65003;49.518;11.280;2023-04-06T12:58:45;5.17;;;4.60;;
76210;SDS011;65003;49.518;11.280;2023-04-06T13:01:12;5.43;;;4.07;;
76210;SDS011;65003;49.518;11.280;2023-04-06T13:03:39;6.60;;;5.23;;
76210;SDS011;65003;49.518;11.280;2023-04-06T13:06:06;6.70;;;4.87;;
76210;SDS011;65003;49.518;11.280;2023-04-06T13:08:36;4.97;;;4.23;;
76210;SDS011;65003;49.518;11.280;2023-04-06T13:11:02;5.27;;;4.70;;
76210;SDS011;65003;49.518;11.280;2023-04-06T13:13:29;6.60;;;4.50;;
76210;SDS011;65003;49.518;11.280;2023-04-06T13:15:59;8.17;;;4.23;;
76210;SDS011;65003;49.518;11.280;2023-04-06T13:18:25;6.37;;;4.73;;
76210;SDS011;65003;49.518;11.280;2023-04-06T13:20:51;7.00;;;5.00;;
76210;SDS011;65003;49.518;11.280;2023-04-06T13:23:18;5.33;;;4.40;;
76210;SDS011;65003;49.518;11.280;2023-04-06T13:25:45;6.53;;;4.70;;
76210;SDS011;65003;49.518;11.280;2023-04-06T13:28:12;4.93;;;4.43;;
76210;SDS011;65003;49.518;11.280;2023-04-06T13:30:38;5.23;;;4.13;;
76210;SDS011;65003;49.518;11.280;2023-04-06T13:33:05;5.30;;;4.80;;
76210;SDS011;65003;49.518;11.280;2023-04-06T13:35:32;6.00;;;4.80;;
76210;SDS011;65003;49.518;11.280;2023-04-06T13:37:58;5.07;;;4.33;;
76210;SDS011;65003;49.518;11.280;2023-04-06T13:40:25;5.40;;;4.30;;
76210;SDS011;65003;49.518;11.280;2023-04-06T13:42:51;4.57;;;3.83;;
76210;SDS011;65003;49.518;11.280;2023-04-06T13:45:18;5.40;;;3.87;;
76210;SDS011;65003;49.518;11.280;2023-04-06T13:47:45;5.60;;;4.60;;
76210;SDS011;65003;49.518;11.280;2023-04-06T13:50:11;5.70;;;4.40;;
76210;SDS011;65003;49.518;11.280;2023-04-06T13:52:38;5.50;;;4.57;;
76210;SDS011;65003;49.518;11.280;2023-04-06T13:55:04;4.43;;;4.03;;
76210;SDS011;65003;49.518;11.280;2023-04-06T13:57:31;9.07;;;4.13;;
76210;SDS011;65003;49.518;11.280;2023-04-06T13:59:58;7.83;;;4.43;;
76210;SDS011;65003;49.518;11.280;2023-04-06T14:02:24;5.13;;;4.23;;
76210;SDS011;65003;49.518;11.280;2023-04-06T14:04:51;4.53;;;4.10;;
76210;SDS011;65003;49.518;11.280;2023-04-06T14:07:17;5.50;;;5.00;;
76210;SDS011;65003;49.518;11.280;2023-04-06T14:09:44;5.10;;;4.57;;
76210;SDS011;65003;49.518;11.280;2023-04-06T14:12:11;5.13;;;3.97;;
76210;SDS011;65003;49.518;11.280;2023-04-06T14:14:37;4.83;;;4.10;;
76210;SDS011;65003;49.518;11.280;2023-04-06T14:17:04;6.00;;;4.10;;
76210;SDS011;65003;49.518;11.280;2023-04-06T14:19:30;6.03;;;4.37;;
76210;SDS011;65003;49.518;11.280;2023-04-06T14:21:57;6.90;;;4.57;;
76210;SDS011;65003;49.518;11.280;2023-04-06T14:24:24;5.57;;;4.37;;
76210;SDS011;65003;49.518;11.280;2023-04-06T14:26:50;4.87;;;4.17;;
76210;SDS011;65003;49.518;11.280;2023-04-06T14:29:17;6.53;;;4.87;;
76210;SDS011;65003;49.518;11.280;2023-04-06T14:31:45;6.67;;;4.03;;
76210;SDS011;65003;49.518;11.280;2023-04-06T14:34:11;4.87;;;4.40;;
76210;SDS011;65003;49.518;11.280;2023-04-06T14:36:38;5.20;;;3.90;;
76210;SDS011;65003;49.518;11.280;2023-04-06T14:39:05;4.57;;;4.07;;